Terminal Aerodrome Forecast
Issued by NWS Cleveland, OH

Home | Current Version | Previous Version | Graphics & Text | Print | Product List | Glossary On
Versions: 1 2 3 4 5 6 7 8 9 10 11 12 13
000
FTUS41 KCLE 270527
TAFCAK
TAF
KCAK 270527Z 2706/2806 VRB03KT P6SM SCT025 OVC050
      TEMPO 2712/2716 BKN025
     FM280100 VRB03KT P6SM SCT250=

USA.gov is the U.S. government's official web portal to all federal, state and local government web resources and services.